Terminal Aerodrome Forecast
Issued by NWS Boise, ID

Home | Current Version | Previous Version | Text Only | Print | Product List | Glossary On
Versions: 1 2 3 4 5 6 7 8 9 10 11 12 13
000
FTUS45 KBOI 262320
TAFBOI
TAF
KBOI 262320Z 2700/2724 14010KT P6SM -SN BKN035 OVC050
     FM270400 VRB05KT P6SM SCT015 OVC050
     FM271100 31010KT P6SM -SHSN SCT020 BKN040
     FM271500 32010KT P6SM BKN050=

USA.gov is the U.S. government's official web portal to all federal, state and local government web resources and services.